Time;durP1;ratioP1;P1;durP2;ratioP2;P2;SDS_P1;SDS_P2;PMS_P1;PMS_P2;Temp;Humidity;BMP_temperature;BMP_pressure;BME280_temperature;BME280_humidity;BME280_pressure;Samples;Min_cycle;Max_cycle;Signal;HPM_P1;HPM_P2
2022/11/22 00:02:00;;;;;;;122.70;60.65;;;1.00;99.90;;;;;;5053312;28;20028;-66
2022/11/22 00:04:25;;;;;;;137.70;61.72;;;1.00;99.90;;;;;;5053231;28;20025;-66
2022/11/22 00:06:51;;;;;;;144.30;65.13;;;1.10;99.90;;;;;;5052032;28;20009;-74
2022/11/22 00:09:16;;;;;;;150.50;66.05;;;1.10;99.90;;;;;;5051892;28;20486;-66
2022/11/22 00:11:42;;;;;;;171.90;66.93;;;1.10;99.90;;;;;;5052412;28;20032;-74
2022/11/22 00:14:07;;;;;;;150.45;65.90;;;1.20;99.90;;;;;;5053185;28;20106;-74
2022/11/22 00:16:33;;;;;;;155.60;67.40;;;1.20;99.90;;;;;;5053206;28;20017;-74
2022/11/22 00:18:59;;;;;;;156.27;67.85;;;1.20;99.90;;;;;;5053219;28;20492;-74
2022/11/22 00:21:24;;;;;;;181.07;73.78;;;1.20;99.90;;;;;;5052864;28;20041;-74
2022/11/22 00:23:55;;;;;;;149.23;65.93;;;1.20;99.90;;;;;;5053091;28;20056;-74
2022/11/22 00:26:21;;;;;;;139.82;68.80;;;1.10;99.90;;;;;;5053187;28;20032;-74
2022/11/22 00:28:46;;;;;;;157.63;71.90;;;1.10;99.90;;;;;;5053138;28;20037;-74
2022/11/22 00:31:12;;;;;;;160.27;72.85;;;1.10;99.90;;;;;;5051669;28;20021;-74
2022/11/22 00:33:37;;;;;;;251.10;109.95;;;1.10;99.90;;;;;;5053051;28;20052;-75
2022/11/22 00:36:03;;;;;;;257.42;106.10;;;1.10;99.90;;;;;;5053083;28;20017;-66
2022/11/22 00:38:29;;;;;;;226.10;96.03;;;1.10;99.90;;;;;;5052962;28;20033;-67
2022/11/22 00:40:55;;;;;;;204.55;92.20;;;1.10;99.90;;;;;;5051447;28;20045;-66
2022/11/22 00:43:20;;;;;;;148.65;59.20;;;1.20;99.90;;;;;;5052832;28;20064;-75
2022/11/22 00:45:46;;;;;;;183.82;61.83;;;1.20;99.90;;;;;;5051662;28;20021;-74
2022/11/22 00:48:11;;;;;;;164.73;51.63;;;1.20;99.90;;;;;;5052775;28;20025;-74
2022/11/22 00:50:37;;;;;;;121.82;45.10;;;1.20;99.90;;;;;;5052967;28;20086;-74
2022/11/22 00:53:03;;;;;;;146.95;49.97;;;1.20;99.90;;;;;;5051553;28;20501;-67
2022/11/22 00:55:29;;;;;;;191.00;57.90;;;1.30;99.90;;;;;;5052956;28;20029;-75
2022/11/22 00:57:54;;;;;;;195.48;56.22;;;1.30;99.90;;;;;;5052833;28;20025;-68
2022/11/22 01:00:20;;;;;;;266.48;68.20;;;1.30;99.90;;;;;;5052718;28;20025;-74
2022/11/22 01:02:45;;;;;;;204.70;54.63;;;1.30;99.90;;;;;;5052783;28;20104;-67
2022/11/22 01:05:11;;;;;;;348.55;78.00;;;1.20;99.90;;;;;;5052563;28;20036;-66
2022/11/22 01:07:36;;;;;;;231.30;57.75;;;1.20;99.90;;;;;;5052766;28;20022;-66
2022/11/22 01:10:03;;;;;;;278.75;65.85;;;1.20;99.90;;;;;;5052620;28;20025;-67
2022/11/22 01:12:28;;;;;;;212.77;53.05;;;1.20;99.90;;;;;;5052752;28;20061;-67
2022/11/22 01:14:54;;;;;;;207.63;53.55;;;1.20;99.90;;;;;;5051409;28;20060;-74
2022/11/22 01:17:20;;;;;;;154.98;50.90;;;1.20;99.90;;;;;;5052553;28;20022;-74
2022/11/22 01:19:46;;;;;;;187.63;54.05;;;1.20;99.90;;;;;;5052588;28;20031;-74
2022/11/22 01:22:11;;;;;;;313.75;58.45;;;1.20;99.90;;;;;;5053151;28;20033;-74
2022/11/22 01:24:37;;;;;;;265.73;54.17;;;1.10;99.90;;;;;;5056214;28;20212;-66
2022/11/22 01:27:03;;;;;;;245.00;48.20;;;1.00;99.90;;;;;;5056318;28;20020;-74
2022/11/22 01:29:28;;;;;;;207.38;49.47;;;1.00;99.90;;;;;;5056185;28;20025;-66
2022/11/22 01:31:54;;;;;;;146.82;39.60;;;1.00;99.90;;;;;;5056151;28;20540;-74
2022/11/22 01:34:19;;;;;;;145.93;39.28;;;0.90;99.90;;;;;;5056116;28;20531;-74
2022/11/22 01:36:45;;;;;;;254.40;54.03;;;0.90;99.90;;;;;;5056065;28;20028;-74
2022/11/22 01:39:10;;;;;;;217.50;43.28;;;0.80;99.90;;;;;;5055958;28;20382;-74
2022/11/22 01:41:36;;;;;;;205.65;39.92;;;0.70;99.90;;;;;;5055783;28;20087;-74
2022/11/22 01:44:22;;;;;;;318.00;59.17;;;0.60;99.90;;;;;;5055563;28;20049;-66
2022/11/22 01:47:00;;;;;;;218.65;44.15;;;0.60;99.90;;;;;;5054469;28;20017;-74
2022/11/22 01:50:03;;;;;;;206.18;42.17;;;0.50;99.90;;;;;;5055834;28;20474;-66
2022/11/22 01:52:31;;;;;;;166.27;37.40;;;0.50;99.90;;;;;;5044563;28;20037;-74
2022/11/22 01:55:05;;;;;;;154.65;33.25;;;0.40;99.90;;;;;;5055774;28;20410;-74
2022/11/22 01:57:35;;;;;;;208.02;39.58;;;0.30;99.90;;;;;;5055564;28;20386;-66
2022/11/22 02:00:09;;;;;;;153.85;36.70;;;0.20;99.90;;;;;;5055512;28;20052;-67
2022/11/22 02:02:35;;;;;;;208.10;42.40;;;0.00;99.90;;;;;;5055440;28;20552;-66
2022/11/22 02:05:09;;;;;;;141.80;34.72;;;0.00;99.90;;;;;;5055359;28;20025;-66
2022/11/22 02:07:57;;;;;;;110.45;31.52;;;0.00;99.90;;;;;;5053778;28;20013;-66
2022/11/22 02:10:26;;;;;;;122.85;32.58;;;-0.10;99.90;;;;;;5072143;28;20025;-74
2022/11/22 02:12:54;;;;;;;98.13;28.50;;;-0.10;99.90;;;;;;5075498;28;20056;-75
2022/11/22 02:15:20;;;;;;;123.63;31.27;;;-0.10;99.90;;;;;;5075318;28;20024;-74
2022/11/22 02:17:45;;;;;;;118.25;28.77;;;-0.20;99.90;;;;;;5075283;28;20440;-67
2022/11/22 02:20:11;;;;;;;142.00;30.83;;;-0.30;99.90;;;;;;5073880;28;20021;-66
2022/11/22 02:23:01;;;;;;;156.90;34.88;;;-0.30;99.90;;;;;;5075194;28;20012;-74
2022/11/22 02:25:40;;;;;;;118.50;33.55;;;-0.30;99.90;;;;;;5075483;28;20028;-65
2022/11/22 02:28:11;;;;;;;163.20;36.35;;;-0.30;99.90;;;;;;5074047;28;20442;-74
2022/11/22 02:30:37;;;;;;;177.48;34.63;;;-0.30;99.90;;;;;;5073821;28;20379;-66
2022/11/22 02:33:03;;;;;;;170.98;35.03;;;-0.30;99.90;;;;;;5075123;28;20032;-74
2022/11/22 02:35:30;;;;;;;182.10;37.80;;;-0.30;99.90;;;;;;5074331;28;20024;-74
2022/11/22 02:38:01;;;;;;;160.75;33.38;;;-0.30;99.90;;;;;;5075072;28;20020;-74
2022/11/22 02:40:31;;;;;;;145.07;33.05;;;-0.40;99.90;;;;;;5074804;28;20036;-74
2022/11/22 02:43:10;;;;;;;166.77;31.73;;;-0.30;99.90;;;;;;5074869;28;20048;-66
2022/11/22 02:45:35;;;;;;;134.10;31.80;;;-0.40;99.90;;;;;;5075117;28;20028;-74
2022/11/22 02:48:05;;;;;;;110.93;25.98;;;-0.40;99.90;;;;;;5074626;28;20363;-68
2022/11/22 02:50:31;;;;;;;123.50;27.60;;;-0.40;99.90;;;;;;5074779;28;20104;-66
2022/11/22 02:52:56;;;;;;;147.63;30.98;;;-0.50;99.90;;;;;;5074629;28;20059;-68
2022/11/22 02:55:22;;;;;;;113.85;26.25;;;-0.50;99.90;;;;;;5074535;28;20025;-66
2022/11/22 02:57:47;;;;;;;178.40;34.50;;;-0.50;99.90;;;;;;5073213;28;20031;-67
2022/11/22 03:00:13;;;;;;;162.50;33.75;;;-0.50;99.90;;;;;;5074398;28;20035;-74
2022/11/22 03:02:39;;;;;;;182.82;31.55;;;-0.50;99.90;;;;;;5074590;28;20054;-74
2022/11/22 03:05:04;;;;;;;164.70;29.80;;;-0.50;99.90;;;;;;5071230;28;20067;-74
2022/11/22 03:07:30;;;;;;;162.20;28.05;;;-0.60;99.90;;;;;;5054303;28;20056;-68
2022/11/22 03:09:55;;;;;;;132.48;25.77;;;-0.60;99.90;;;;;;5067383;28;20021;-74
2022/11/22 03:12:21;;;;;;;131.52;25.63;;;-0.60;99.90;;;;;;5074273;28;20423;-74
2022/11/22 03:14:47;;;;;;;157.95;29.13;;;-0.60;99.90;;;;;;5074209;28;20024;-66
2022/11/22 03:17:15;;;;;;;121.15;27.67;;;-0.60;99.90;;;;;;5074278;28;20020;-74
2022/11/22 03:19:40;;;;;;;112.40;23.98;;;-0.60;99.90;;;;;;5073943;28;20100;-74
2022/11/22 03:22:06;;;;;;;88.90;23.63;;;-0.60;99.90;;;;;;5074082;28;20112;-74
2022/11/22 03:24:31;;;;;;;95.55;25.73;;;-0.60;99.90;;;;;;5073922;28;20028;-74
2022/11/22 03:26:57;;;;;;;103.50;26.27;;;-0.60;99.90;;;;;;5072820;28;20390;-74
2022/11/22 03:29:22;;;;;;;97.95;25.58;;;-0.60;99.90;;;;;;5073903;28;20074;-66
2022/11/22 03:31:48;;;;;;;105.20;26.33;;;-0.60;99.90;;;;;;5073953;28;20031;-68
2022/11/22 03:34:14;;;;;;;121.15;26.63;;;-0.60;99.90;;;;;;5073758;28;20035;-66
2022/11/22 03:36:40;;;;;;;109.93;25.80;;;-0.60;99.90;;;;;;5073867;28;20115;-67
2022/11/22 03:39:05;;;;;;;116.30;26.52;;;-0.60;99.90;;;;;;5073684;28;20546;-66
2022/11/22 03:41:31;;;;;;;87.50;23.23;;;-0.60;99.90;;;;;;5073743;28;20171;-74
2022/11/22 03:43:56;;;;;;;98.57;25.17;;;-0.60;99.90;;;;;;5072412;28;20131;-74
2022/11/22 03:46:22;;;;;;;94.38;22.60;;;-0.60;99.90;;;;;;5073460;28;20024;-67
2022/11/22 03:48:48;;;;;;;68.18;23.10;;;-0.70;99.90;;;;;;5073625;28;20389;-67
2022/11/22 03:51:13;;;;;;;57.53;19.58;;;-0.70;99.90;;;;;;5073625;28;20497;-73
2022/11/22 03:53:39;;;;;;;60.35;20.05;;;-0.70;99.90;;;;;;5073575;28;20029;-74
2022/11/22 03:56:05;;;;;;;70.93;19.27;;;-0.80;99.90;;;;;;5073586;28;20086;-74
2022/11/22 03:58:31;;;;;;;60.08;18.58;;;-0.90;99.90;;;;;;5073373;28;20028;-66
2022/11/22 04:00:57;;;;;;;43.70;17.92;;;-0.90;99.90;;;;;;5073403;28;20390;-66
2022/11/22 04:03:23;;;;;;;55.15;17.25;;;-0.90;99.90;;;;;;5072166;28;20013;-75
2022/11/22 04:05:49;;;;;;;62.75;19.85;;;-1.00;99.90;;;;;;5063849;28;20031;-66
2022/11/22 04:08:14;;;;;;;50.92;18.00;;;-1.00;99.90;;;;;;5053447;28;20075;-73
2022/11/22 04:10:40;;;;;;;57.50;20.23;;;-1.00;99.90;;;;;;5073016;28;20505;-74
2022/11/22 04:13:06;;;;;;;72.55;20.63;;;-1.00;99.90;;;;;;5072165;28;20493;-74
2022/11/22 04:15:31;;;;;;;79.80;21.67;;;-0.90;99.90;;;;;;5073299;28;20028;-74
2022/11/22 04:17:57;;;;;;;60.72;18.77;;;-0.90;99.90;;;;;;5073117;28;20039;-74
2022/11/22 04:23:13;;;;;;;61.40;21.85;;;-1.00;99.90;;;;;;5073487;28;20043;-74
2022/11/22 04:25:41;;;;;;;68.18;21.83;;;-1.00;99.90;;;;;;5073294;28;20082;-66
2022/11/22 04:28:08;;;;;;;59.22;20.23;;;-0.90;99.90;;;;;;5073178;28;20432;-66
2022/11/22 04:33:18;;;;;;;69.20;23.27;;;-0.90;99.90;;;;;;5073740;28;20091;-66
2022/11/22 04:35:44;;;;;;;77.28;24.50;;;-0.90;99.90;;;;;;5057346;28;20025;-74
2022/11/22 04:38:11;;;;;;;84.05;26.25;;;-0.90;99.90;;;;;;5051792;28;20482;-74
2022/11/22 04:40:37;;;;;;;73.32;27.33;;;-0.80;99.90;;;;;;5052831;28;20521;-74
2022/11/22 04:45:48;;;;;;;105.18;29.35;;;-0.80;99.90;;;;;;5053062;28;20031;-74
2022/11/22 04:48:14;;;;;;;116.50;30.92;;;-0.70;99.90;;;;;;5052968;28;20028;-68
2022/11/22 04:53:25;;;;;;;93.65;28.40;;;-0.70;99.90;;;;;;5053256;28;20044;-66
2022/11/22 04:55:51;;;;;;;115.07;32.08;;;-0.70;99.90;;;;;;5052885;28;20037;-74
2022/11/22 04:58:17;;;;;;;131.77;31.65;;;-0.70;99.90;;;;;;5055435;28;20017;-67
2022/11/22 05:00:43;;;;;;;119.93;33.50;;;-0.70;99.90;;;;;;5055426;28;20083;-66
2022/11/22 05:03:09;;;;;;;93.15;28.80;;;-0.70;99.90;;;;;;5056272;28;20195;-74
2022/11/22 05:05:36;;;;;;;103.82;28.08;;;-0.60;99.90;;;;;;5056590;28;20021;-73
2022/11/22 05:08:02;;;;;;;96.30;28.98;;;-0.70;99.90;;;;;;5056629;28;20021;-66
2022/11/22 05:10:55;;;;;;;73.93;25.02;;;-0.70;99.90;;;;;;5056450;28;20028;-66
2022/11/22 05:13:14;;;;;;;85.20;26.55;;;-0.70;99.90;;;;;;5056374;28;20049;-74
2022/11/22 05:15:39;;;;;;;80.57;27.48;;;-0.60;99.90;;;;;;5056442;28;20071;-66
2022/11/22 05:18:05;;;;;;;67.93;25.38;;;-0.60;99.90;;;;;;5056358;28;20021;-74
2022/11/22 05:20:30;;;;;;;65.60;24.50;;;-0.60;99.90;;;;;;5056266;28;20037;-74
2022/11/22 05:25:44;;;;;;;50.95;23.83;;;-0.60;99.90;;;;;;5053625;28;20083;-66
2022/11/22 05:28:10;;;;;;;63.05;24.40;;;-0.60;99.90;;;;;;5056311;28;20432;-67
2022/11/22 05:30:38;;;;;;;57.75;24.48;;;-0.60;99.90;;;;;;5056142;28;20032;-66
2022/11/22 05:33:03;;;;;;;56.53;25.25;;;-0.70;99.90;;;;;;5056355;28;20122;-66
2022/11/22 05:35:29;;;;;;;53.38;22.95;;;-0.60;99.90;;;;;;5055935;28;20502;-66
2022/11/22 05:37:56;;;;;;;72.00;27.30;;;-0.60;99.90;;;;;;5056040;28;20058;-74
2022/11/22 05:40:22;;;;;;;57.47;22.85;;;-0.60;99.90;;;;;;5055813;28;20063;-66
2022/11/22 05:42:47;;;;;;;62.33;26.50;;;-0.60;99.90;;;;;;5046223;28;20384;-66
2022/11/22 05:45:13;;;;;;;62.53;23.52;;;-0.60;99.90;;;;;;5049841;28;20099;-74
2022/11/22 05:47:38;;;;;;;56.00;25.23;;;-0.50;99.90;;;;;;5074455;28;20025;-74
2022/11/22 05:50:04;;;;;;;61.60;25.27;;;-0.50;99.90;;;;;;5075605;28;20079;-74
2022/11/22 05:52:30;;;;;;;62.35;23.50;;;-0.50;99.90;;;;;;5068133;28;20020;-66
2022/11/22 05:54:56;;;;;;;43.35;21.88;;;-0.60;99.90;;;;;;5075620;28;20032;-67
2022/11/22 05:57:22;;;;;;;83.22;26.70;;;-0.60;99.90;;;;;;5075084;28;20048;-66
2022/11/22 05:59:47;;;;;;;63.10;22.95;;;-0.60;99.90;;;;;;5072941;28;20017;-74
2022/11/22 06:02:13;;;;;;;69.35;25.83;;;-0.60;99.90;;;;;;5069212;28;20041;-74
2022/11/22 06:04:38;;;;;;;60.65;24.70;;;-0.60;99.90;;;;;;5071474;28;20472;-66
2022/11/22 06:07:04;;;;;;;63.45;24.00;;;-0.50;99.90;;;;;;5052162;28;20086;-74
2022/11/22 06:09:29;;;;;;;49.72;23.73;;;-0.50;99.90;;;;;;5059955;28;20052;-66
2022/11/22 06:11:55;;;;;;;53.83;22.73;;;-0.50;99.90;;;;;;5074528;28;20032;-74
2022/11/22 06:14:21;;;;;;;63.20;25.15;;;-0.50;99.90;;;;;;5075073;28;20029;-67
2022/11/22 06:16:46;;;;;;;55.40;24.25;;;-0.50;99.90;;;;;;5067322;28;20061;-74
2022/11/22 06:19:12;;;;;;;51.25;24.17;;;-0.50;99.90;;;;;;5068904;28;20029;-68
2022/11/22 06:21:37;;;;;;;55.33;24.35;;;-0.50;99.90;;;;;;5067043;28;20488;-74
2022/11/22 06:24:03;;;;;;;52.67;22.95;;;-0.60;99.90;;;;;;5075070;28;20033;-65
2022/11/22 06:26:29;;;;;;;56.20;24.83;;;-0.50;99.90;;;;;;5074556;28;20035;-67
2022/11/22 06:28:55;;;;;;;65.57;25.00;;;-0.50;99.90;;;;;;5073714;28;20048;-75
2022/11/22 06:31:25;;;;;;;61.13;25.75;;;-0.50;99.90;;;;;;5074744;28;20471;-75
2022/11/22 06:33:58;;;;;;;54.20;24.73;;;-0.60;99.90;;;;;;5074823;28;20485;-75
2022/11/22 06:36:28;;;;;;;57.17;23.65;;;-0.60;99.90;;;;;;5053076;28;20017;-65
2022/11/22 06:38:54;;;;;;;53.17;22.48;;;-0.60;99.90;;;;;;5067328;28;20470;-74
2022/11/22 06:41:22;;;;;;;63.55;23.88;;;-0.60;99.90;;;;;;5073895;28;20036;-74
2022/11/22 06:43:49;;;;;;;55.95;23.27;;;-0.60;99.90;;;;;;5058500;28;20057;-74
2022/11/22 06:46:17;;;;;;;45.78;22.27;;;-0.50;99.90;;;;;;5072269;28;20033;-74
2022/11/22 06:48:43;;;;;;;47.25;22.70;;;-0.50;99.90;;;;;;5060502;28;20108;-73
2022/11/22 06:51:12;;;;;;;52.05;25.25;;;-0.50;99.90;;;;;;5056680;28;20620;-67
2022/11/22 06:53:39;;;;;;;50.17;22.88;;;-0.50;99.90;;;;;;5065099;28;20056;-73
2022/11/22 06:56:07;;;;;;;54.88;23.98;;;-0.50;99.90;;;;;;5052848;28;20029;-66
2022/11/22 06:58:33;;;;;;;47.58;23.50;;;-0.50;99.90;;;;;;5067818;28;20474;-73
2022/11/22 07:01:08;;;;;;;49.15;23.05;;;-0.50;99.90;;;;;;5046469;28;20038;-74
2022/11/22 07:03:35;;;;;;;48.70;22.55;;;-0.50;99.90;;;;;;5046602;28;20711;-74
2022/11/22 07:06:01;;;;;;;46.95;23.95;;;-0.40;99.90;;;;;;5044589;28;20024;-74
2022/11/22 07:08:27;;;;;;;45.97;22.25;;;-0.40;99.90;;;;;;5062713;28;20032;-74
2022/11/22 07:10:52;;;;;;;44.00;22.77;;;-0.30;99.90;;;;;;5048438;28;20029;-74
2022/11/22 07:13:19;;;;;;;36.28;21.65;;;-0.30;99.90;;;;;;5049854;28;20099;-67
2022/11/22 07:16:06;;;;;;;48.20;24.10;;;-0.20;99.90;;;;;;5048292;28;20021;-74
2022/11/22 07:18:32;;;;;;;56.30;26.65;;;-0.10;99.90;;;;;;5041395;28;20022;-66
2022/11/22 07:21:03;;;;;;;53.65;24.67;;;-0.10;99.90;;;;;;5044572;28;20040;-66
2022/11/22 07:23:29;;;;;;;48.60;23.25;;;0.00;99.90;;;;;;5049273;28;20017;-66
2022/11/22 07:25:55;;;;;;;44.28;22.15;;;0.10;99.90;;;;;;5044270;28;20978;-66
2022/11/22 07:28:21;;;;;;;44.53;23.92;;;0.20;99.90;;;;;;5046498;28;20017;-67
2022/11/22 07:30:46;;;;;;;46.03;24.40;;;0.20;99.90;;;;;;5054990;28;20394;-66
2022/11/22 07:33:12;;;;;;;48.83;26.13;;;0.30;99.90;;;;;;5051825;28;20014;-74
2022/11/22 07:35:38;;;;;;;47.50;24.67;;;0.40;99.90;;;;;;5044343;28;20529;-66
2022/11/22 07:38:03;;;;;;;49.17;25.77;;;0.50;99.90;;;;;;5044465;28;20442;-68
2022/11/22 07:40:29;;;;;;;52.75;26.67;;;0.50;99.90;;;;;;5048785;28;20044;-74
2022/11/22 07:42:54;;;;;;;47.65;26.50;;;0.60;99.90;;;;;;5051420;28;20040;-66
2022/11/22 07:45:20;;;;;;;61.25;27.17;;;0.60;99.90;;;;;;5039293;28;20025;-66
2022/11/22 07:47:46;;;;;;;48.75;23.17;;;0.70;99.90;;;;;;5039990;28;20020;-74
2022/11/22 07:50:11;;;;;;;50.83;23.27;;;0.80;99.90;;;;;;5033558;28;20029;-74
2022/11/22 07:52:37;;;;;;;71.55;23.85;;;0.80;99.90;;;;;;5039528;28;20013;-75
2022/11/22 07:55:05;;;;;;;42.92;20.88;;;0.90;99.90;;;;;;5041781;28;20483;-75
2022/11/22 07:57:31;;;;;;;46.60;21.73;;;1.10;99.90;;;;;;5043111;28;20092;-66
2022/11/22 07:59:56;;;;;;;42.05;19.23;;;1.20;99.90;;;;;;5042601;28;20103;-66
2022/11/22 08:02:22;;;;;;;76.88;21.25;;;1.30;99.90;;;;;;5041286;28;20041;-68
2022/11/22 08:04:47;;;;;;;35.53;18.42;;;1.30;99.90;;;;;;5043376;28;20021;-75
2022/11/22 08:07:13;;;;;;;38.00;19.40;;;1.50;99.90;;;;;;5041941;28;20017;-68
2022/11/22 08:09:39;;;;;;;35.42;19.77;;;1.50;99.90;;;;;;5061766;28;20055;-75
2022/11/22 08:12:04;;;;;;;35.15;19.20;;;1.60;99.90;;;;;;5047694;28;20056;-66
2022/11/22 08:14:30;;;;;;;33.45;17.95;;;1.70;99.90;;;;;;5038098;28;20038;-66
2022/11/22 08:16:55;;;;;;;36.08;19.83;;;1.80;99.90;;;;;;5033299;28;20021;-67
2022/11/22 08:19:21;;;;;;;30.60;19.25;;;1.90;99.90;;;;;;5045660;28;20048;-66
2022/11/22 08:21:48;;;;;;;32.25;18.42;;;1.90;99.90;;;;;;5053106;28;20033;-75
2022/11/22 08:24:14;;;;;;;27.80;15.88;;;2.00;99.90;;;;;;5052873;28;20029;-66
2022/11/22 08:26:40;;;;;;;28.98;14.57;;;2.10;99.90;;;;;;5053047;28;20028;-67
2022/11/22 08:29:08;;;;;;;27.55;17.13;;;2.10;99.90;;;;;;5052781;28;20025;-75
2022/11/22 08:31:34;;;;;;;76.32;22.35;;;2.20;99.90;;;;;;5049489;28;20029;-67
2022/11/22 08:34:00;;;;;;;47.85;18.40;;;2.30;99.90;;;;;;5055913;28;20561;-68
2022/11/22 08:36:26;;;;;;;39.22;17.88;;;2.40;99.90;;;;;;5056127;28;20054;-67
2022/11/22 08:38:52;;;;;;;35.65;17.83;;;2.50;99.90;;;;;;5056243;28;20032;-75
2022/11/22 08:41:17;;;;;;;30.83;17.30;;;2.60;99.90;;;;;;5056598;28;20036;-75
2022/11/22 08:43:43;;;;;;;33.10;15.88;;;2.70;99.90;;;;;;5055312;28;20140;-75
2022/11/22 08:46:09;;;;;;;24.42;14.63;;;2.80;99.90;;;;;;5040374;28;20033;-74
2022/11/22 08:48:36;;;;;;;23.83;13.55;;;2.80;99.90;;;;;;5055964;28;20037;-68
2022/11/22 08:51:06;;;;;;;25.83;14.65;;;2.90;99.90;;;;;;5056093;28;20017;-75
2022/11/22 08:53:34;;;;;;;26.92;15.38;;;3.00;99.90;;;;;;5055431;28;20055;-67
2022/11/22 08:56:01;;;;;;;25.08;14.77;;;3.10;99.90;;;;;;5056906;28;20025;-67
2022/11/22 08:58:29;;;;;;;29.33;14.82;;;3.20;99.90;;;;;;5056841;28;20499;-75
2022/11/22 09:00:55;;;;;;;27.95;16.55;;;3.20;99.90;;;;;;5056863;28;20025;-67
2022/11/22 09:03:21;;;;;;;31.70;14.75;;;3.30;99.90;;;;;;5055391;28;20025;-71
2022/11/22 09:05:46;;;;;;;22.08;14.13;;;3.40;99.90;;;;;;5054315;28;20086;-75
2022/11/22 09:08:12;;;;;;;23.67;12.95;;;3.50;99.90;;;;;;5053542;28;20040;-75
2022/11/22 09:10:37;;;;;;;23.70;13.38;;;3.60;99.90;;;;;;5072690;28;20078;-75
2022/11/22 09:13:03;;;;;;;24.05;13.02;;;3.60;99.90;;;;;;5072502;28;20028;-69
2022/11/22 09:15:28;;;;;;;22.02;11.57;;;3.70;99.90;;;;;;5072781;28;20552;-75
2022/11/22 09:18:01;;;;;;;22.02;13.00;;;3.80;99.90;;;;;;5073831;28;20023;-67
2022/11/22 09:20:27;;;;;;;22.42;13.45;;;3.90;99.90;;;;;;5074613;28;20028;-67
2022/11/22 09:22:53;;;;;;;26.65;12.75;;;3.90;99.90;;;;;;5075797;28;20020;-68
2022/11/22 09:25:18;;;;;;;21.05;12.30;;;4.00;99.90;;;;;;5076218;28;20032;-75
2022/11/22 09:27:44;;;;;;;23.80;13.10;;;4.10;99.90;;;;;;5075110;28;20039;-68
2022/11/22 09:30:10;;;;;;;18.88;11.40;;;4.10;99.90;;;;;;5076249;28;20378;-67
2022/11/22 09:32:35;;;;;;;23.65;12.52;;;4.10;99.90;;;;;;5076334;28;20024;-74
2022/11/22 09:35:01;;;;;;;26.30;12.68;;;4.20;99.90;;;;;;5076219;28;20021;-74
2022/11/22 09:37:27;;;;;;;26.88;11.60;;;4.20;99.90;;;;;;5076122;28;20051;-68
2022/11/22 09:39:52;;;;;;;21.15;11.90;;;4.20;99.90;;;;;;5076077;28;20027;-66
2022/11/22 09:42:21;;;;;;;21.52;11.82;;;4.30;99.90;;;;;;5074992;28;20059;-74
2022/11/22 09:45:17;;;;;;;23.17;11.07;;;4.40;99.90;;;;;;5054363;28;20482;-75
2022/11/22 09:48:15;;;;;;;22.08;12.02;;;4.40;99.90;;;;;;5055927;28;20423;-75
2022/11/22 09:51:05;;;;;;;17.55;11.05;;;4.50;99.90;;;;;;5056082;28;20035;-74
2022/11/22 09:53:36;;;;;;;16.30;10.32;;;4.60;99.90;;;;;;5055853;28;20033;-67
2022/11/22 09:56:14;;;;;;;19.63;11.43;;;4.70;99.90;;;;;;5054319;28;20394;-67
2022/11/22 09:59:01;;;;;;;22.67;11.18;;;4.80;99.90;;;;;;5054887;28;20028;-74
2022/11/22 10:01:41;;;;;;;19.98;10.98;;;4.80;99.90;;;;;;5053689;28;20037;-74
2022/11/22 10:04:15;;;;;;;21.52;11.50;;;4.90;99.90;;;;;;5053895;28;20407;-75
2022/11/22 10:06:45;;;;;;;20.38;11.98;;;5.00;99.90;;;;;;5055591;28;20497;-74
2022/11/22 10:09:19;;;;;;;21.58;11.15;;;5.00;99.90;;;;;;5064555;28;20024;-74
2022/11/22 10:12:00;;;;;;;21.10;11.48;;;5.10;99.90;;;;;;5075376;28;20032;-75
2022/11/22 10:14:43;;;;;;;26.58;12.18;;;5.10;99.90;;;;;;5074025;28;20052;-74
2022/11/22 10:17:17;;;;;;;21.75;11.25;;;5.10;99.90;;;;;;5073424;28;20016;-74
2022/11/22 10:20:09;;;;;;;17.40;9.60;;;5.20;99.90;;;;;;5073208;28;20025;-74
2022/11/22 10:22:35;;;;;;;15.10;8.02;;;5.30;99.90;;;;;;5061041;28;20057;-67
2022/11/22 10:25:11;;;;;;;14.98;8.32;;;5.40;99.90;;;;;;5052119;28;20057;-67
2022/11/22 10:27:39;;;;;;;16.52;8.80;;;5.40;99.90;;;;;;5051360;28;20028;-67
2022/11/22 10:30:14;;;;;;;15.13;9.82;;;5.50;99.90;;;;;;5048527;28;20468;-67
2022/11/22 10:32:41;;;;;;;20.17;9.55;;;5.60;99.90;;;;;;5052720;28;20078;-67
2022/11/22 10:35:13;;;;;;;20.42;8.77;;;5.60;99.90;;;;;;5052695;28;20068;-67
2022/11/22 10:38:27;;;;;;;16.92;9.13;;;5.60;99.90;;;;;;5053958;28;20029;-66
2022/11/22 10:41:13;;;;;;;12.50;8.48;;;5.70;99.90;;;;;;5051913;28;20043;-67
2022/11/22 10:43:52;;;;;;;19.80;9.32;;;5.60;95.90;;;;;;5053781;28;20091;-68
2022/11/22 10:46:41;;;;;;;14.40;9.00;;;5.70;98.10;;;;;;5052213;28;20033;-67
2022/11/22 10:49:23;;;;;;;20.08;11.15;;;5.70;98.00;;;;;;5052366;28;20475;-67
2022/11/22 10:52:13;;;;;;;22.95;13.85;;;5.80;99.90;;;;;;5043472;28;20025;-67
2022/11/22 10:54:39;;;;;;;24.45;13.80;;;5.70;99.90;;;;;;5047482;28;20029;-75
2022/11/22 10:57:20;;;;;;;26.95;15.10;;;5.70;99.90;;;;;;5045036;28;20030;-69
2022/11/22 11:00:14;;;;;;;23.02;12.90;;;5.70;99.90;;;;;;5042867;28;20017;-75
2022/11/22 11:02:51;;;;;;;18.80;12.07;;;5.70;99.90;;;;;;5044725;28;20063;-75
2022/11/22 11:05:20;;;;;;;17.73;11.25;;;5.80;99.90;;;;;;5042304;28;20033;-75
2022/11/22 11:07:49;;;;;;;17.85;10.60;;;5.80;99.90;;;;;;5042505;28;20017;-68
2022/11/22 11:10:21;;;;;;;22.77;13.13;;;5.90;99.70;;;;;;5045043;28;20062;-67
2022/11/22 11:13:00;;;;;;;18.33;11.52;;;5.90;99.50;;;;;;5042855;28;20426;-75
2022/11/22 11:15:37;;;;;;;21.48;12.50;;;5.90;99.90;;;;;;5042001;28;20419;-74
2022/11/22 11:18:07;;;;;;;61.47;17.40;;;5.80;99.00;;;;;;5041021;28;20029;-67
2022/11/22 11:20:37;;;;;;;27.70;12.82;;;5.70;96.90;;;;;;5042014;28;20035;-74
2022/11/22 11:23:03;;;;;;;19.50;11.65;;;5.70;97.30;;;;;;5044558;28;20017;-74
2022/11/22 11:25:41;;;;;;;22.63;13.63;;;5.80;93.90;;;;;;5042528;28;20028;-74
2022/11/22 11:28:25;;;;;;;42.05;11.98;;;5.80;93.30;;;;;;5042515;28;20024;-75
2022/11/22 11:31:00;;;;;;;94.07;18.27;;;5.80;89.10;;;;;;5042626;28;20414;-75
2022/11/22 11:33:27;;;;;;;22.17;10.35;;;5.80;90.00;;;;;;5048150;28;20014;-67
2022/11/22 11:36:05;;;;;;;15.07;9.15;;;5.80;89.50;;;;;;5042629;28;20021;-67
2022/11/22 11:38:47;;;;;;;18.35;9.82;;;5.80;91.10;;;;;;5044161;28;20023;-75
2022/11/22 11:41:16;;;;;;;16.38;9.00;;;5.80;89.90;;;;;;5053642;28;20036;-75
2022/11/22 11:43:43;;;;;;;19.70;10.05;;;5.90;91.20;;;;;;5048377;28;20479;-74
2022/11/22 11:46:24;;;;;;;15.63;8.90;;;5.90;90.30;;;;;;5041267;28;20067;-67
2022/11/22 11:48:52;;;;;;;14.68;8.27;;;5.90;89.70;;;;;;5033703;28;20017;-67
2022/11/22 11:51:29;;;;;;;19.95;9.30;;;5.90;88.40;;;;;;5051768;28;20021;-76
2022/11/22 11:54:02;;;;;;;17.10;9.32;;;6.00;88.60;;;;;;5053215;28;20108;-76
2022/11/22 11:56:44;;;;;;;39.55;11.15;;;6.00;89.00;;;;;;5051264;28;20036;-76
2022/11/22 11:59:21;;;;;;;22.25;9.57;;;6.00;86.30;;;;;;5041113;28;20033;-67
2022/11/22 12:01:55;;;;;;;26.70;11.60;;;5.90;88.00;;;;;;5034595;28;20026;-67
2022/11/22 12:04:34;;;;;;;23.20;9.07;;;5.90;86.60;;;;;;5032328;28;20453;-68
2022/11/22 12:07:03;;;;;;;15.93;8.77;;;5.80;85.70;;;;;;5033423;28;20029;-67
2022/11/22 12:09:51;;;;;;;15.80;9.55;;;5.70;86.80;;;;;;5045985;28;20021;-75
2022/11/22 12:12:26;;;;;;;20.38;10.25;;;5.70;88.40;;;;;;5045553;28;20453;-75
2022/11/22 12:15:14;;;;;;;24.58;12.23;;;5.70;87.40;;;;;;5042971;28;20390;-75
2022/11/22 12:18:00;;;;;;;30.02;17.08;;;5.70;89.10;;;;;;5043284;28;20474;-75
2022/11/22 12:20:35;;;;;;;29.70;17.25;;;5.60;93.90;;;;;;5043428;28;20029;-76
2022/11/22 12:23:31;;;;;;;27.10;15.93;;;5.60;96.60;;;;;;5048455;28;20036;-75
2022/11/22 12:25:57;;;;;;;35.88;18.88;;;5.50;97.00;;;;;;5044724;28;20572;-75
2022/11/22 12:28:27;;;;;;;30.13;16.35;;;5.40;99.50;;;;;;5067360;28;20417;-67
2022/11/22 12:31:03;;;;;;;28.83;16.35;;;5.30;99.90;;;;;;5044824;28;20425;-67
2022/11/22 12:33:35;;;;;;;26.10;14.18;;;5.20;99.90;;;;;;5037664;28;20017;-68
2022/11/22 12:36:04;;;;;;;32.50;17.17;;;5.10;99.90;;;;;;5039275;28;20504;-67
2022/11/22 12:38:35;;;;;;;35.65;18.05;;;5.00;99.90;;;;;;5038266;28;20112;-67
2022/11/22 12:41:04;;;;;;;37.85;18.77;;;4.80;99.90;;;;;;5045958;28;20127;-67
2022/11/22 12:43:48;;;;;;;30.85;17.65;;;4.70;99.90;;;;;;5055137;28;20529;-67
2022/11/22 12:46:24;;;;;;;31.13;17.50;;;4.70;99.90;;;;;;5071696;28;20033;-67
2022/11/22 12:49:09;;;;;;;32.97;18.70;;;4.60;99.90;;;;;;5070419;28;20060;-67
2022/11/22 12:51:53;;;;;;;48.95;19.75;;;4.40;99.90;;;;;;5070965;28;20548;-75
2022/11/22 12:54:24;;;;;;;48.58;20.80;;;4.40;99.90;;;;;;5070613;28;20029;-75
2022/11/22 12:56:56;;;;;;;36.05;19.38;;;4.20;99.90;;;;;;5071371;28;20428;-76